Time;durP1;ratioP1;P1;durP2;ratioP2;P2;SDS_P1;SDS_P2;PMS_P1;PMS_P2;Temp;Humidity;BMP_temperature;BMP_pressure;BME280_temperature;BME280_humidity;BME280_pressure;Samples;Min_cycle;Max_cycle;Signal;HPM_P1;HPM_P2
2022/06/23 00:02:07;;;;;;;3.30;3.10;;;12.90;99.90;;;;;;5053930;28;20368;-70
2022/06/23 00:04:38;;;;;;;3.50;3.30;;;12.90;99.90;;;;;;5053542;28;20401;-69
2022/06/23 00:07:06;;;;;;;3.10;2.90;;;12.90;99.90;;;;;;5053177;28;20812;-69
2022/06/23 00:09:41;;;;;;;3.33;2.67;;;12.90;99.90;;;;;;5053915;28;20872;-67
2022/06/23 00:12:26;;;;;;;2.83;2.70;;;12.90;99.90;;;;;;5053804;28;20399;-67
2022/06/23 00:15:10;;;;;;;3.77;3.10;;;12.80;99.90;;;;;;5053875;28;20412;-70
2022/06/23 00:17:40;;;;;;;3.93;3.67;;;12.90;99.90;;;;;;5053160;28;20490;-67
2022/06/23 00:20:29;;;;;;;2.80;2.60;;;12.80;99.90;;;;;;5053200;28;20876;-66
2022/06/23 00:23:01;;;;;;;3.00;2.80;;;12.80;99.90;;;;;;5051708;28;20501;-67
2022/06/23 00:25:48;;;;;;;2.87;2.67;;;12.80;99.90;;;;;;5053766;28;20492;-70
2022/06/23 00:28:18;;;;;;;2.90;2.70;;;12.70;99.90;;;;;;5052827;28;20925;-67
2022/06/23 00:30:44;;;;;;;3.10;2.90;;;12.80;99.90;;;;;;5053463;28;20376;-70
2022/06/23 00:33:20;;;;;;;2.90;2.70;;;12.70;99.90;;;;;;5053405;28;20810;-67
2022/06/23 00:35:50;;;;;;;2.93;2.73;;;12.70;99.90;;;;;;5052127;28;20879;-67
2022/06/23 00:38:36;;;;;;;2.63;2.43;;;12.70;99.90;;;;;;5052599;28;20459;-70
2022/06/23 00:41:02;;;;;;;3.30;3.10;;;12.60;99.90;;;;;;5053131;28;20425;-69
2022/06/23 00:43:30;;;;;;;2.90;2.70;;;12.60;99.90;;;;;;5052770;28;20914;-66
2022/06/23 00:46:10;;;;;;;3.93;3.53;;;12.60;99.90;;;;;;5051012;28;20419;-67
2022/06/23 00:48:51;;;;;;;3.10;2.90;;;12.60;99.90;;;;;;5052102;28;20452;-66
2022/06/23 00:51:32;;;;;;;3.33;3.13;;;12.60;99.90;;;;;;5053196;28;20856;-66
2022/06/23 00:54:19;;;;;;;3.17;2.87;;;12.50;99.90;;;;;;5053080;28;20419;-70
2022/06/23 00:56:56;;;;;;;3.80;3.47;;;12.50;99.90;;;;;;5052475;28;20396;-70
2022/06/23 00:59:33;;;;;;;3.20;3.00;;;12.50;99.90;;;;;;5052846;28;20456;-70
2022/06/23 01:02:19;;;;;;;3.70;3.40;;;12.40;99.90;;;;;;5052625;28;20383;-66
2022/06/23 01:04:59;;;;;;;3.23;3.03;;;12.40;99.90;;;;;;5052550;28;20433;-70
2022/06/23 01:07:46;;;;;;;3.93;3.63;;;12.30;99.90;;;;;;5052279;28;20375;-66
2022/06/23 01:10:31;;;;;;;3.20;3.00;;;12.30;99.90;;;;;;5052922;28;20419;-66
2022/06/23 01:13:03;;;;;;;3.00;2.80;;;12.30;99.90;;;;;;5052898;28;20934;-72
2022/06/23 01:15:32;;;;;;;3.17;3.00;;;12.20;99.90;;;;;;5052873;28;20388;-66
2022/06/23 01:18:21;;;;;;;2.97;2.73;;;12.20;99.90;;;;;;5051972;28;20436;-73
2022/06/23 01:20:52;;;;;;;3.20;3.00;;;12.30;99.90;;;;;;5050971;28;20908;-68
2022/06/23 01:24:05;;;;;;;3.40;3.20;;;12.20;99.90;;;;;;5052840;28;20391;-69
2022/06/23 01:26:49;;;;;;;3.20;3.00;;;12.20;99.90;;;;;;5052186;28;20475;-72
2022/06/23 01:29:18;;;;;;;8.23;3.10;;;12.10;99.90;;;;;;5052750;28;20396;-69
2022/06/23 01:31:53;;;;;;;2.93;2.73;;;12.10;99.90;;;;;;5052777;28;20886;-68
2022/06/23 01:34:38;;;;;;;3.07;2.90;;;12.10;99.90;;;;;;5052944;28;20770;-72
2022/06/23 01:37:14;;;;;;;2.87;2.67;;;12.10;99.90;;;;;;5052045;28;20790;-70
2022/06/23 01:40:00;;;;;;;2.70;2.50;;;12.10;99.90;;;;;;5052182;28;20469;-72
2022/06/23 01:42:50;;;;;;;3.37;3.13;;;12.10;99.90;;;;;;5052740;28;20384;-71
2022/06/23 01:45:25;;;;;;;3.33;3.03;;;12.00;99.90;;;;;;5052715;28;20401;-72
2022/06/23 01:48:00;;;;;;;3.30;3.10;;;12.00;99.90;;;;;;5051973;28;20454;-68
2022/06/23 01:50:40;;;;;;;2.93;2.73;;;12.00;99.90;;;;;;5051312;28;20812;-69
2022/06/23 01:53:12;;;;;;;3.33;3.10;;;11.90;99.90;;;;;;5052466;28;20954;-71
2022/06/23 01:56:05;;;;;;;3.30;3.10;;;11.90;99.90;;;;;;5052606;28;20809;-72
2022/06/23 01:58:47;;;;;;;3.20;3.00;;;11.90;99.90;;;;;;5051061;28;20456;-70
2022/06/23 02:01:23;;;;;;;5.23;2.87;;;11.90;99.90;;;;;;5054833;28;20394;-72
2022/06/23 02:03:57;;;;;;;3.93;3.63;;;11.90;99.90;;;;;;5056281;28;20383;-68
2022/06/23 02:06:44;;;;;;;3.17;2.97;;;11.80;99.90;;;;;;5056118;28;20408;-69
2022/06/23 02:09:26;;;;;;;3.67;2.93;;;11.80;99.90;;;;;;5056044;28;20502;-68
2022/06/23 02:11:53;;;;;;;3.50;3.27;;;11.80;99.90;;;;;;5056290;28;20382;-67
2022/06/23 02:14:38;;;;;;;3.30;3.10;;;11.80;99.90;;;;;;5056169;28;20402;-71
2022/06/23 02:17:30;;;;;;;3.50;3.30;;;11.70;99.90;;;;;;5055127;28;20416;-69
2022/06/23 02:20:02;;;;;;;3.53;3.33;;;11.70;99.90;;;;;;5056017;28;20445;-71
2022/06/23 02:22:36;;;;;;;4.30;3.90;;;11.70;99.90;;;;;;5056062;28;20376;-71
2022/06/23 02:25:20;;;;;;;3.97;3.67;;;11.70;99.90;;;;;;5055992;28;20423;-69
2022/06/23 02:27:48;;;;;;;5.47;4.57;;;11.70;99.90;;;;;;5055342;28;20380;-71
2022/06/23 02:30:23;;;;;;;6.90;5.13;;;11.70;99.90;;;;;;5055908;28;20413;-72
2022/06/23 02:33:16;;;;;;;4.50;4.10;;;11.70;99.90;;;;;;5055928;28;20387;-68
2022/06/23 02:36:02;;;;;;;5.17;4.67;;;11.70;99.90;;;;;;5055201;28;20391;-73
2022/06/23 02:39:04;;;;;;;4.13;3.80;;;11.70;99.90;;;;;;5054921;28;20435;-68
2022/06/23 02:41:46;;;;;;;4.70;4.30;;;11.70;1.00;;;;;;5055395;28;20399;-73
2022/06/23 02:44:20;;;;;;;4.07;3.87;;;11.70;1.00;;;;;;5055774;28;20467;-73
2022/06/23 02:46:57;;;;;;;7.43;4.23;;;11.70;1.00;;;;;;5055475;28;20371;-68
2022/06/23 02:49:57;;;;;;;4.57;3.63;;;11.60;1.00;;;;;;5055383;28;20424;-72
2022/06/23 02:52:36;;;;;;;4.87;3.53;;;11.60;1.00;;;;;;5055173;28;20412;-69
2022/06/23 02:55:08;;;;;;;3.17;2.97;;;11.60;1.00;;;;;;5055509;28;20393;-69
2022/06/23 02:57:34;;;;;;;3.63;3.33;;;11.60;1.00;;;;;;5054651;28;20876;-68
2022/06/23 03:00:42;;;;;;;6.00;3.70;;;11.60;1.00;;;;;;5055282;28;20413;-72
2022/06/23 03:03:27;;;;;;;4.43;4.00;;;11.50;1.00;;;;;;5055300;28;20171;-71
2022/06/23 03:06:02;;;;;;;3.70;3.40;;;11.50;1.00;;;;;;5055281;28;20862;-68
2022/06/23 03:08:36;;;;;;;3.73;3.53;;;11.50;99.90;;;;;;5053994;28;20526;-69
2022/06/23 03:11:14;;;;;;;3.87;3.60;;;11.50;1.00;;;;;;5054746;28;20500;-71
2022/06/23 03:13:42;;;;;;;3.07;2.90;;;11.40;99.90;;;;;;5055087;28;20417;-71
2022/06/23 03:16:25;;;;;;;4.40;3.50;;;11.20;99.90;;;;;;5055085;28;20423;-72
2022/06/23 03:19:02;;;;;;;6.20;5.70;;;11.20;1.00;;;;;;5054394;28;20464;-72
2022/06/23 03:21:52;;;;;;;4.57;4.20;;;11.30;1.00;;;;;;5054958;28;20840;-72
2022/06/23 03:24:30;;;;;;;3.87;3.57;;;11.30;1.00;;;;;;5054984;28;20911;-68
2022/06/23 03:27:27;;;;;;;4.87;4.40;;;11.40;1.00;;;;;;5053933;28;20380;-72
2022/06/23 03:30:15;;;;;;;4.27;3.87;;;11.40;1.00;;;;;;5054255;28;20455;-67
2022/06/23 03:32:47;;;;;;;4.33;4.03;;;11.40;1.00;;;;;;5054750;28;20401;-68
2022/06/23 03:35:18;;;;;;;3.67;3.37;;;11.40;1.00;;;;;;5054800;28;20488;-72
2022/06/23 03:41:36;;;;;;;4.53;4.13;;;11.40;1.00;;;;;;5054313;28;20432;-71
2022/06/23 03:44:29;;;;;;;5.00;4.60;;;11.40;1.00;;;;;;5054158;28;20379;-68
2022/06/23 03:47:11;;;;;;;4.50;3.87;;;11.50;1.00;;;;;;5053702;28;20417;-68
2022/06/23 03:49:47;;;;;;;6.17;4.10;;;11.50;1.00;;;;;;5054416;28;20433;-68
2022/06/23 03:52:20;;;;;;;7.53;3.90;;;11.50;1.00;;;;;;5054407;28;20740;-66
2022/06/23 03:54:47;;;;;;;5.10;4.70;;;11.50;1.00;;;;;;5053044;28;20811;-66
2022/06/23 03:57:53;;;;;;;5.43;3.70;;;11.50;1.00;;;;;;5053594;28;20401;-66
2022/06/23 04:00:19;;;;;;;3.30;3.10;;;11.50;1.00;;;;;;5054324;28;20388;-66
2022/06/23 04:02:50;;;;;;;4.83;4.33;;;11.60;1.00;;;;;;5054160;28;20401;-70
2022/06/23 04:05:22;;;;;;;5.20;4.63;;;11.70;1.00;;;;;;5053497;28;20413;-70
2022/06/23 04:08:00;;;;;;;4.73;4.00;;;11.90;1.00;;;;;;5053344;28;20908;-70
2022/06/23 04:10:33;;;;;;;6.23;4.33;;;12.00;1.00;;;;;;5054007;28;20376;-67
2022/06/23 04:13:06;;;;;;;4.60;4.20;;;12.10;1.00;;;;;;5054107;28;20944;-71
2022/06/23 04:15:39;;;;;;;6.13;4.70;;;12.20;1.00;;;;;;5053955;28;20404;-71
2022/06/23 04:18:09;;;;;;;5.33;4.63;;;12.30;1.00;;;;;;5052888;28;20431;-70
2022/06/23 04:20:44;;;;;;;7.40;5.20;;;12.40;1.00;;;;;;5052545;28;20422;-67
2022/06/23 04:23:32;;;;;;;6.00;5.50;;;12.60;1.00;;;;;;5052517;28;20378;-70
2022/06/23 04:26:03;;;;;;;5.93;5.30;;;12.60;1.00;;;;;;5053680;28;20440;-67
2022/06/23 04:28:45;;;;;;;9.47;5.83;;;12.70;1.00;;;;;;5052930;28;20425;-66
2022/06/23 04:31:26;;;;;;;5.47;4.97;;;12.80;1.00;;;;;;5053654;28;20720;-67
2022/06/23 04:33:54;;;;;;;5.30;4.90;;;12.90;1.00;;;;;;5053543;28;21007;-68
2022/06/23 04:36:23;;;;;;;5.50;5.00;;;13.10;1.00;;;;;;5053367;28;20902;-67
2022/06/23 04:38:59;;;;;;;5.07;4.67;;;13.20;1.00;;;;;;5053009;28;20636;-66
2022/06/23 04:41:33;;;;;;;4.97;4.43;;;13.30;1.00;;;;;;5052910;28;20391;-67
2022/06/23 04:44:05;;;;;;;5.33;4.83;;;13.40;1.00;;;;;;5053429;28;20451;-70
2022/06/23 04:46:38;;;;;;;4.50;4.10;;;13.60;1.00;;;;;;5052654;28;20489;-67
2022/06/23 04:49:13;;;;;;;5.43;4.93;;;13.60;1.00;;;;;;5053257;28;20418;-67
2022/06/23 04:51:49;;;;;;;4.50;4.10;;;13.80;1.00;;;;;;5053371;28;20466;-67
2022/06/23 04:54:20;;;;;;;6.10;5.20;;;13.90;1.00;;;;;;5053220;28;20401;-67
2022/06/23 04:57:07;;;;;;;8.03;4.90;;;14.00;1.00;;;;;;5052513;28;20398;-72
2022/06/23 04:59:43;;;;;;;4.83;4.43;;;14.10;1.00;;;;;;5052533;28;20453;-71
2022/06/23 05:02:29;;;;;;;4.60;4.20;;;14.20;1.00;;;;;;5052962;28;20882;-71
2022/06/23 05:05:10;;;;;;;9.43;4.10;;;14.30;1.00;;;;;;5053211;28;20451;-71
2022/06/23 05:07:58;;;;;;;5.30;4.80;;;14.30;1.00;;;;;;5052514;28;20401;-71
2022/06/23 05:10:35;;;;;;;6.77;5.30;;;14.40;11.40;;;;;;5051627;28;20476;-68
2022/06/23 05:13:18;;;;;;;5.97;5.40;;;14.50;38.80;;;;;;5053057;28;20413;-69
2022/06/23 05:15:48;;;;;;;5.27;4.77;;;14.40;55.80;;;;;;5053074;28;20398;-68
2022/06/23 05:18:30;;;;;;;5.43;4.93;;;14.40;77.70;;;;;;5051861;28;20968;-71
2022/06/23 05:20:57;;;;;;;5.03;4.60;;;14.50;92.60;;;;;;5051556;28;20405;-67
2022/06/23 05:23:44;;;;;;;6.33;5.17;;;14.50;99.30;;;;;;5052768;28;20393;-71
2022/06/23 05:26:26;;;;;;;6.70;5.50;;;14.50;99.90;;;;;;5052795;28;20476;-71
2022/06/23 05:29:03;;;;;;;4.70;4.40;;;14.60;99.90;;;;;;5052687;28;20429;-71
2022/06/23 05:31:35;;;;;;;5.77;5.37;;;14.70;99.90;;;;;;5052921;28;20390;-67
2022/06/23 05:34:07;;;;;;;5.83;4.83;;;14.70;99.90;;;;;;5053294;28;20394;-67
2022/06/23 05:36:46;;;;;;;6.37;5.77;;;14.80;99.90;;;;;;5055999;28;20405;-70
2022/06/23 05:39:27;;;;;;;4.97;4.57;;;14.90;99.70;;;;;;5055348;28;20861;-67
2022/06/23 05:41:58;;;;;;;6.23;5.30;;;14.90;96.70;;;;;;5056812;28;20402;-67
2022/06/23 05:44:31;;;;;;;4.10;3.80;;;15.00;92.30;;;;;;5056728;28;20890;-68
2022/06/23 05:47:01;;;;;;;4.77;3.83;;;15.10;90.80;;;;;;5056131;28;20397;-67
2022/06/23 05:49:34;;;;;;;5.00;4.50;;;15.20;84.60;;;;;;5056666;28;20520;-67
2022/06/23 05:52:02;;;;;;;4.33;4.00;;;15.30;82.00;;;;;;5056596;28;20501;-71
2022/06/23 05:54:35;;;;;;;4.37;4.07;;;15.40;73.90;;;;;;5055919;28;20906;-66
2022/06/23 05:57:13;;;;;;;4.83;4.43;;;15.40;61.80;;;;;;5055928;28;20818;-69
2022/06/23 06:00:04;;;;;;;5.27;4.80;;;15.50;48.30;;;;;;5056478;28;20456;-65
2022/06/23 06:02:38;;;;;;;4.53;4.13;;;15.50;37.80;;;;;;5056371;28;21133;-67
2022/06/23 06:05:05;;;;;;;5.10;4.70;;;15.50;30.30;;;;;;5056339;28;20434;-70
2022/06/23 06:07:38;;;;;;;4.73;4.33;;;15.60;24.10;;;;;;5055890;28;20891;-65
2022/06/23 06:10:14;;;;;;;4.03;3.73;;;15.70;19.20;;;;;;5056226;28;20444;-65
2022/06/23 06:12:42;;;;;;;4.90;3.77;;;15.70;8.50;;;;;;5054838;28;20421;-66
2022/06/23 06:15:27;;;;;;;5.70;4.60;;;15.80;4.60;;;;;;5055867;28;20402;-72
2022/06/23 06:18:00;;;;;;;5.13;3.67;;;15.90;6.10;;;;;;5055246;28;20425;-67
2022/06/23 06:20:27;;;;;;;6.03;4.37;;;15.90;4.50;;;;;;5056123;28;20463;-67
2022/06/23 06:22:55;;;;;;;4.60;4.20;;;16.00;2.90;;;;;;5056163;28;20916;-71
2022/06/23 06:25:31;;;;;;;4.07;3.77;;;16.10;1.00;;;;;;5055950;28;20455;-71
2022/06/23 06:28:08;;;;;;;4.57;3.90;;;16.20;1.00;;;;;;5055355;28;20403;-71
2022/06/23 06:30:38;;;;;;;4.03;3.63;;;16.20;1.00;;;;;;5054964;28;20515;-71
2022/06/23 06:33:04;;;;;;;4.40;4.00;;;16.20;1.00;;;;;;5055219;28;20906;-71
2022/06/23 06:35:36;;;;;;;6.03;4.07;;;16.30;1.00;;;;;;5055920;28;20865;-71
2022/06/23 06:38:14;;;;;;;7.27;4.73;;;16.30;1.00;;;;;;5054965;28;20449;-67
2022/06/23 06:40:44;;;;;;;4.93;4.47;;;16.40;1.00;;;;;;5054777;28;20902;-71
2022/06/23 06:43:15;;;;;;;4.33;3.90;;;16.50;1.00;;;;;;5055673;28;20811;-67
2022/06/23 06:45:41;;;;;;;5.80;4.53;;;16.60;1.00;;;;;;5055150;28;20902;-71
2022/06/23 06:48:23;;;;;;;4.40;4.00;;;16.70;1.00;;;;;;5054781;28;20405;-67
2022/06/23 06:50:54;;;;;;;8.77;6.57;;;16.70;1.00;;;;;;5055099;28;20240;-66
2022/06/23 06:53:28;;;;;;;4.90;4.50;;;16.80;1.00;;;;;;5055417;28;20421;-66
2022/06/23 06:56:03;;;;;;;4.60;4.20;;;16.90;1.00;;;;;;5055096;28;20405;-72
2022/06/23 06:58:36;;;;;;;6.03;5.53;;;16.90;1.00;;;;;;5054532;28;20453;-68
2022/06/23 07:01:10;;;;;;;5.23;4.73;;;17.00;1.00;;;;;;5055425;28;20413;-67
2022/06/23 07:03:38;;;;;;;6.43;4.30;;;17.10;1.00;;;;;;5055346;28;20419;-67
2022/06/23 07:06:19;;;;;;;6.00;4.30;;;17.20;1.00;;;;;;5055252;28;20406;-66
2022/06/23 07:08:52;;;;;;;6.00;5.43;;;17.30;1.00;;;;;;5053883;28;20441;-66
2022/06/23 07:11:21;;;;;;;6.17;5.57;;;17.40;1.00;;;;;;5055014;28;20393;-66
2022/06/23 07:13:58;;;;;;;4.77;4.27;;;17.50;1.00;;;;;;5053984;28;20914;-66
2022/06/23 07:16:28;;;;;;;7.70;5.50;;;17.60;1.00;;;;;;5054898;28;20405;-67
2022/06/23 07:19:09;;;;;;;6.20;5.70;;;17.60;1.00;;;;;;5054754;28;20457;-67
2022/06/23 07:21:54;;;;;;;7.90;4.67;;;17.60;1.00;;;;;;5054875;28;20394;-72
2022/06/23 07:24:29;;;;;;;5.17;4.37;;;17.70;1.00;;;;;;5053862;28;20911;-67
2022/06/23 07:26:54;;;;;;;5.00;4.60;;;17.70;1.00;;;;;;5053640;28;20405;-71
2022/06/23 07:29:50;;;;;;;5.43;4.73;;;17.70;1.00;;;;;;5054675;28;20493;-72
2022/06/23 07:32:20;;;;;;;6.87;5.13;;;17.80;1.00;;;;;;5054877;28;20262;-66
2022/06/23 07:34:54;;;;;;;6.17;5.30;;;17.80;1.00;;;;;;5054699;28;20401;-72
2022/06/23 07:37:32;;;;;;;8.03;5.30;;;17.80;1.00;;;;;;5053784;28;20428;-68
2022/06/23 07:40:07;;;;;;;7.30;5.30;;;17.80;1.00;;;;;;5054492;28;20456;-71
2022/06/23 07:42:58;;;;;;;6.03;5.13;;;17.90;1.00;;;;;;5054292;28;20404;-67
2022/06/23 07:45:30;;;;;;;5.97;5.20;;;18.10;1.00;;;;;;5054392;28;20414;-68
2022/06/23 07:47:56;;;;;;;5.63;4.63;;;18.10;1.00;;;;;;5053479;28;20390;-71
2022/06/23 07:50:22;;;;;;;7.60;4.20;;;18.20;1.00;;;;;;5054635;28;20398;-67
2022/06/23 07:52:49;;;;;;;5.93;4.90;;;18.30;1.00;;;;;;5054350;28;20416;-67
2022/06/23 07:55:24;;;;;;;5.17;4.67;;;18.40;1.00;;;;;;5053377;28;20936;-67
2022/06/23 07:57:50;;;;;;;4.27;3.87;;;18.50;1.00;;;;;;5052221;28;20416;-71
2022/06/23 08:00:17;;;;;;;7.10;4.33;;;18.60;1.00;;;;;;5053919;28;20433;-71
2022/06/23 08:03:00;;;;;;;5.37;4.27;;;18.70;1.00;;;;;;5053765;28;20496;-71
2022/06/23 08:05:52;;;;;;;5.90;5.13;;;18.90;1.00;;;;;;5054039;28;20397;-67
2022/06/23 08:08:22;;;;;;;5.20;4.70;;;19.00;1.00;;;;;;5053135;28;20421;-67
2022/06/23 08:12:53;;;;;;;4.47;3.40;;;19.00;99.90;;;;;;5053005;28;20430;-71
2022/06/23 08:13:40;;;;;;;4.17;3.77;;;19.10;99.90;;;;;;5053826;28;20905;-67
2022/06/23 08:19:01;;;;;;;4.47;4.07;;;19.20;99.90;;;;;;5052837;28;20488;-72
2022/06/23 08:21:31;;;;;;;5.53;4.27;;;19.30;99.90;;;;;;5053793;28;20402;-67
2022/06/23 08:24:14;;;;;;;5.90;3.93;;;19.30;99.90;;;;;;5053635;28;20775;-71
2022/06/23 08:26:44;;;;;;;3.97;3.67;;;19.30;99.90;;;;;;5052927;28;20401;-71
2022/06/23 08:29:13;;;;;;;4.67;3.53;;;19.40;99.90;;;;;;5053733;28;20571;-72
2022/06/23 08:31:39;;;;;;;3.90;3.60;;;19.50;99.90;;;;;;5053664;28;20489;-67
2022/06/23 08:34:06;;;;;;;4.27;3.87;;;19.60;99.90;;;;;;5053525;28;20543;-72
2022/06/23 08:36:44;;;;;;;3.80;3.57;;;19.70;99.90;;;;;;5050751;28;20574;-71
2022/06/23 08:39:22;;;;;;;6.07;4.90;;;19.80;99.90;;;;;;5053510;28;20456;-72
2022/06/23 08:42:00;;;;;;;5.37;4.00;;;19.90;99.90;;;;;;5053499;28;20405;-67
2022/06/23 08:44:52;;;;;;;3.60;3.30;;;19.90;99.90;;;;;;5053522;28;20402;-67
2022/06/23 08:48:02;;;;;;;3.97;3.60;;;20.00;99.90;;;;;;5052524;28;20513;-71
2022/06/23 08:50:30;;;;;;;5.17;2.90;;;20.20;99.90;;;;;;5053439;28;20413;-73
2022/06/23 08:53:07;;;;;;;3.13;2.93;;;20.30;99.90;;;;;;5052630;28;20409;-67
2022/06/23 08:55:47;;;;;;;4.40;2.57;;;20.50;99.90;;;;;;5053305;28;20481;-72
2022/06/23 08:58:33;;;;;;;2.90;2.70;;;20.70;99.90;;;;;;5052150;28;20445;-72
2022/06/23 09:01:12;;;;;;;2.80;2.60;;;20.90;99.90;;;;;;5053229;28;20404;-67
2022/06/23 09:03:52;;;;;;;2.47;2.27;;;21.00;99.90;;;;;;5053116;28;20407;-70
2022/06/23 09:06:39;;;;;;;3.50;2.43;;;21.00;99.90;;;;;;5052844;28;20420;-71
2022/06/23 09:09:24;;;;;;;3.03;2.40;;;21.10;99.90;;;;;;5051778;28;20942;-71
2022/06/23 09:12:28;;;;;;;3.87;2.57;;;21.30;99.90;;;;;;5052942;28;20965;-71
2022/06/23 09:15:15;;;;;;;2.50;2.30;;;21.60;99.90;;;;;;5052633;28;20790;-72
2022/06/23 09:18:01;;;;;;;3.20;2.43;;;21.90;99.90;;;;;;5052075;28;20471;-67
2022/06/23 09:20:59;;;;;;;4.47;2.57;;;21.90;99.90;;;;;;5052706;28;20463;-68
2022/06/23 09:23:48;;;;;;;2.50;2.30;;;22.00;99.90;;;;;;5052829;28;20413;-68
2022/06/23 09:26:41;;;;;;;2.40;2.20;;;22.20;99.90;;;;;;5052703;28;20766;-67
2022/06/23 09:29:10;;;;;;;2.53;2.10;;;22.70;99.90;;;;;;5052284;28;20421;-68
2022/06/23 09:31:51;;;;;;;2.50;2.00;;;23.00;99.90;;;;;;5052075;28;20459;-68
2022/06/23 09:34:44;;;;;;;2.50;1.93;;;23.40;99.90;;;;;;5052288;28;20483;-70
2022/06/23 09:37:28;;;;;;;5.60;1.97;;;23.60;99.90;;;;;;5051483;28;20409;-68
2022/06/23 09:40:05;;;;;;;1.97;1.70;;;23.70;99.90;;;;;;5052295;28;20487;-72
2022/06/23 09:42:45;;;;;;;3.20;2.20;;;23.70;99.90;;;;;;5052154;28;20397;-69
2022/06/23 09:45:41;;;;;;;2.00;1.90;;;23.80;99.90;;;;;;5052225;28;20890;-67
2022/06/23 09:48:42;;;;;;;2.87;1.70;;;23.90;99.90;;;;;;5050606;28;20429;-71
2022/06/23 09:51:29;;;;;;;1.67;1.40;;;24.20;99.90;;;;;;5052062;28;20735;-69
2022/06/23 09:54:22;;;;;;;1.80;1.70;;;24.40;99.90;;;;;;5052242;28;20447;-74
2022/06/23 09:57:15;;;;;;;2.47;1.90;;;24.70;99.90;;;;;;5051636;28;20406;-67
2022/06/23 09:59:52;;;;;;;1.43;1.33;;;24.50;99.90;;;;;;5052513;28;20511;-71
2022/06/23 10:02:54;;;;;;;1.40;1.30;;;24.80;99.90;;;;;;5052766;28;20401;-70
2022/06/23 10:05:37;;;;;;;1.53;1.43;;;25.40;99.90;;;;;;5052376;28;20405;-70
2022/06/23 10:08:22;;;;;;;1.97;1.40;;;25.70;99.90;;;;;;5051137;28;20770;-74
2022/06/23 10:11:03;;;;;;;2.90;1.30;;;25.90;99.90;;;;;;5052372;28;20397;-73
2022/06/23 10:13:44;;;;;;;1.90;1.77;;;26.00;99.90;;;;;;5052557;28;20475;-69
2022/06/23 10:16:47;;;;;;;1.90;1.80;;;26.30;99.90;;;;;;5052548;28;20912;-73
2022/06/23 10:19:35;;;;;;;1.77;1.40;;;26.60;98.00;;;;;;5052176;28;20464;-75
2022/06/23 10:22:15;;;;;;;1.30;1.20;;;26.90;98.10;;;;;;5053912;28;20886;-70
2022/06/23 10:24:53;;;;;;;1.50;1.13;;;27.10;98.20;;;;;;5055455;28;20443;-73
2022/06/23 10:27:44;;;;;;;2.00;1.47;;;27.50;98.30;;;;;;5054944;28;20499;-70
2022/06/23 10:30:21;;;;;;;1.93;1.27;;;27.80;98.40;;;;;;5055644;28;20433;-68
2022/06/23 10:33:16;;;;;;;1.40;1.20;;;28.00;90.80;;;;;;5054603;28;20439;-74
2022/06/23 10:36:06;;;;;;;1.10;0.90;;;28.30;90.60;;;;;;5055500;28;20440;-75
2022/06/23 10:38:31;;;;;;;1.07;0.97;;;28.50;88.40;;;;;;5054732;28;20487;-74
2022/06/23 10:41:00;;;;;;;1.50;1.30;;;28.30;88.60;;;;;;5055714;28;20480;-69
2022/06/23 10:43:44;;;;;;;1.83;1.20;;;27.90;80.50;;;;;;5054868;28;20174;-71
2022/06/23 10:46:23;;;;;;;2.97;1.43;;;28.20;81.90;;;;;;5055651;28;20394;-71
2022/06/23 10:49:17;;;;;;;1.60;1.50;;;28.30;83.40;;;;;;5055133;28;20508;-75
2022/06/23 10:51:46;;;;;;;1.90;1.17;;;28.70;79.60;;;;;;5054708;28;20409;-76
2022/06/23 10:54:28;;;;;;;1.90;1.10;;;28.90;70.50;;;;;;5055615;28;20750;-75
2022/06/23 10:57:25;;;;;;;1.60;1.50;;;29.10;71.30;;;;;;5054661;28;20870;-76
2022/06/23 11:00:03;;;;;;;1.20;1.10;;;29.40;65.40;;;;;;5055888;28;20539;-72
2022/06/23 11:02:59;;;;;;;2.63;1.00;;;29.20;63.90;;;;;;5054605;28;20788;-76
2022/06/23 11:05:50;;;;;;;4.53;1.57;;;29.30;55.80;;;;;;5055366;28;20909;-72
2022/06/23 11:08:31;;;;;;;1.30;1.10;;;29.10;47.50;;;;;;5054352;28;20421;-73
2022/06/23 11:11:09;;;;;;;1.80;1.00;;;29.30;57.30;;;;;;5055238;28;20405;-73
2022/06/23 11:13:49;;;;;;;2.17;1.00;;;29.40;42.60;;;;;;5055110;28;20432;-76
2022/06/23 11:16:52;;;;;;;1.10;0.80;;;29.70;58.90;;;;;;5054981;28;20417;-75
2022/06/23 11:19:57;;;;;;;1.53;0.97;;;30.30;37.30;;;;;;5053797;28;20461;-72
2022/06/23 11:22:34;;;;;;;1.97;1.00;;;30.40;26.90;;;;;;5055037;28;20739;-76
2022/06/23 11:25:13;;;;;;;1.70;1.00;;;30.60;27.80;;;;;;5054972;28;20409;-75
2022/06/23 11:27:58;;;;;;;2.23;1.40;;;30.70;24.10;;;;;;5053942;28;20393;-76
2022/06/23 11:30:26;;;;;;;1.20;1.00;;;30.40;25.80;;;;;;5053897;28;20759;-72
2022/06/23 11:33:07;;;;;;;3.53;1.07;;;31.10;24.70;;;;;;5054648;28;20397;-72
2022/06/23 11:36:17;;;;;;;2.60;1.47;;;31.50;25.20;;;;;;5053952;28;20389;-76
2022/06/23 11:39:01;;;;;;;1.43;1.07;;;32.10;27.90;;;;;;5053210;28;20461;-72
2022/06/23 11:41:35;;;;;;;1.40;1.13;;;32.30;17.20;;;;;;5054732;28;20413;-76
2022/06/23 11:44:25;;;;;;;2.87;1.30;;;32.50;13.40;;;;;;5054710;28;20886;-73
2022/06/23 11:47:04;;;;;;;1.20;0.90;;;32.80;13.50;;;;;;5053769;28;20582;-73
2022/06/23 11:49:37;;;;;;;1.70;1.27;;;32.90;13.40;;;;;;5054421;28;20432;-76
2022/06/23 11:52:21;;;;;;;1.53;1.10;;;33.00;5.20;;;;;;5054577;28;20397;-76
2022/06/23 11:55:11;;;;;;;1.10;1.00;;;32.90;1.50;;;;;;5053828;28;20382;-72
2022/06/23 11:58:02;;;;;;;4.50;1.07;;;32.90;2.30;;;;;;5053415;28;20445;-73
2022/06/23 12:00:46;;;;;;;1.73;1.10;;;33.30;6.70;;;;;;5054356;28;20894;-72
2022/06/23 12:03:37;;;;;;;1.47;1.03;;;33.60;1.00;;;;;;5052928;28;20402;-77
2022/06/23 12:06:03;;;;;;;1.30;1.20;;;33.70;1.00;;;;;;5054237;28;20404;-77
2022/06/23 12:08:29;;;;;;;1.53;1.00;;;33.80;1.00;;;;;;5053129;28;20413;-73
2022/06/23 12:10:55;;;;;;;1.07;0.97;;;33.90;1.00;;;;;;5053300;28;20166;-73
2022/06/23 12:13:23;;;;;;;3.00;1.37;;;34.30;1.00;;;;;;5054160;28;20175;-73
2022/06/23 12:15:50;;;;;;;2.23;1.30;;;34.60;1.00;;;;;;5053970;28;20397;-76
2022/06/23 12:18:20;;;;;;;2.20;1.50;;;35.00;1.00;;;;;;5052858;28;20456;-76
2022/06/23 12:20:56;;;;;;;2.13;1.13;;;35.40;1.00;;;;;;5054119;28;20421;-76
2022/06/23 12:23:27;;;;;;;2.27;1.60;;;35.50;1.00;;;;;;5053942;28;20404;-73
2022/06/23 12:26:17;;;;;;;1.87;1.30;;;35.40;1.00;;;;;;5053690;28;20425;-72
2022/06/23 12:29:14;;;;;;;5.13;1.70;;;35.00;1.00;;;;;;5052570;28;20441;-75
2022/06/23 12:32:02;;;;;;;2.13;1.40;;;35.10;1.00;;;;;;5053010;28;20452;-72
2022/06/23 12:34:39;;;;;;;1.77;1.60;;;35.20;1.00;;;;;;5053727;28;20413;-72
2022/06/23 12:37:18;;;;;;;2.23;1.70;;;34.80;1.00;;;;;;5052795;28;20397;-72
2022/06/23 12:39:50;;;;;;;1.70;1.60;;;34.30;1.00;;;;;;5053350;28;20957;-76
2022/06/23 12:42:22;;;;;;;1.40;1.30;;;34.20;1.00;;;;;;5053610;28;20402;-76
2022/06/23 12:45:08;;;;;;;2.10;1.87;;;33.90;1.00;;;;;;5053145;28;20397;-76
2022/06/23 12:47:53;;;;;;;2.30;1.33;;;33.40;1.00;;;;;;5052522;28;20402;-75
2022/06/23 12:50:45;;;;;;;3.77;1.60;;;33.10;1.00;;;;;;5052618;28;20405;-73
2022/06/23 12:53:26;;;;;;;1.97;1.20;;;33.20;1.00;;;;;;5053346;28;20397;-72
2022/06/23 12:56:12;;;;;;;1.77;1.67;;;33.10;1.00;;;;;;5053385;28;20478;-73
2022/06/23 12:58:46;;;;;;;2.27;1.70;;;33.20;1.00;;;;;;5052627;28;20811;-73
2022/06/23 13:01:17;;;;;;;1.60;1.50;;;33.10;1.00;;;;;;5051900;28;20404;-75
2022/06/23 13:03:50;;;;;;;3.33;1.50;;;33.00;1.00;;;;;;5053243;28;20852;-76
2022/06/23 13:06:25;;;;;;;1.30;1.20;;;33.40;1.00;;;;;;5052804;28;20392;-74
2022/06/23 13:09:09;;;;;;;2.43;1.40;;;34.30;1.00;;;;;;5051490;28;20477;-74
2022/06/23 13:11:55;;;;;;;2.07;1.30;;;34.60;1.00;;;;;;5052924;28;20436;-73
2022/06/23 13:14:33;;;;;;;1.70;1.60;;;35.00;1.00;;;;;;5052732;28;20419;-75
2022/06/23 13:17:36;;;;;;;2.37;1.70;;;35.40;1.00;;;;;;5051969;28;20491;-72
2022/06/23 13:20:23;;;;;;;1.40;1.30;;;35.80;1.00;;;;;;5052205;28;20506;-76
2022/06/23 13:22:53;;;;;;;2.10;1.40;;;36.40;1.00;;;;;;5051896;28;20413;-73
2022/06/23 13:25:36;;;;;;;5.33;1.93;;;36.30;1.00;;;;;;5052986;28;20878;-75
2022/06/23 13:28:05;;;;;;;1.63;1.53;;;36.20;1.00;;;;;;5051881;28;20488;-72
2022/06/23 13:30:45;;;;;;;2.27;1.30;;;36.20;1.00;;;;;;5051986;28;20417;-75
2022/06/23 13:33:24;;;;;;;1.20;1.10;;;36.20;1.00;;;;;;5051621;28;20474;-75
2022/06/23 13:35:59;;;;;;;1.83;1.73;;;35.90;1.00;;;;;;5052875;28;20451;-75
2022/06/23 13:38:40;;;;;;;1.60;1.50;;;35.70;1.00;;;;;;5051667;28;20453;-75
2022/06/23 13:41:21;;;;;;;2.03;1.70;;;35.50;1.00;;;;;;5052814;28;20902;-73
2022/06/23 13:44:33;;;;;;;2.60;1.50;;;34.90;1.00;;;;;;5052799;28;20420;-74
2022/06/23 13:47:01;;;;;;;1.50;1.30;;;34.50;1.00;;;;;;5040589;28;20417;-74
2022/06/23 13:49:40;;;;;;;1.93;1.60;;;33.90;1.00;;;;;;5052193;28;20409;-73
2022/06/23 13:52:22;;;;;;;1.70;1.40;;;33.00;1.00;;;;;;5052890;28;20408;-73
2022/06/23 13:55:01;;;;;;;2.47;1.30;;;32.40;1.00;;;;;;5051514;28;20790;-74
2022/06/23 13:57:33;;;;;;;1.80;1.70;;;32.00;1.00;;;;;;5054535;28;20420;-73
2022/06/23 13:59:59;;;;;;;2.10;1.70;;;31.80;1.00;;;;;;5056508;28;20536;-75